Time;durP1;ratioP1;P1;durP2;ratioP2;P2;SDS_P1;SDS_P2;PMS_P1;PMS_P2;Temp;Humidity;BMP_temperature;BMP_pressure;BME280_temperature;BME280_humidity;BME280_pressure;Samples;Min_cycle;Max_cycle;Signal;HPM_P1;HPM_P2
2021/07/02 00:00:50;;;;;;;10.10;5.57;;;23.00;58.30;;;;;;4986105;28;20219;-71
2021/07/02 00:03:20;;;;;;;6.73;5.17;;;23.00;58.20;;;;;;4981778;28;20226;-70
2021/07/02 00:05:51;;;;;;;7.13;5.30;;;23.00;58.20;;;;;;4978033;28;20208;-71
2021/07/02 00:08:25;;;;;;;7.27;5.17;;;23.00;58.20;;;;;;4984744;28;20201;-70
2021/07/02 00:10:57;;;;;;;6.67;5.17;;;22.90;58.20;;;;;;4977559;28;20223;-70
2021/07/02 00:13:28;;;;;;;8.37;5.20;;;22.90;58.80;;;;;;4985285;28;20201;-70
2021/07/02 00:16:00;;;;;;;6.40;5.10;;;22.90;58.20;;;;;;4975598;28;20204;-70
2021/07/02 00:18:28;;;;;;;8.27;5.30;;;22.90;58.20;;;;;;4989239;28;20207;-70
2021/07/02 00:20:57;;;;;;;6.13;5.43;;;22.90;58.10;;;;;;4982676;28;20211;-70
2021/07/02 00:23:28;;;;;;;9.03;5.90;;;22.90;58.10;;;;;;4985860;28;20204;-70
2021/07/02 00:25:55;;;;;;;6.10;5.37;;;22.90;58.10;;;;;;4987878;28;20650;-70
2021/07/02 00:28:26;;;;;;;6.20;5.03;;;22.80;58.10;;;;;;4983302;28;20288;-70
2021/07/02 00:30:53;;;;;;;8.63;5.27;;;22.90;58.20;;;;;;4990291;28;20221;-70
2021/07/02 00:33:21;;;;;;;7.03;5.37;;;22.80;58.10;;;;;;4985169;28;20232;-70
2021/07/02 00:36:03;;;;;;;7.57;5.30;;;22.80;58.00;;;;;;4987206;28;20283;-70
2021/07/02 00:38:30;;;;;;;6.03;4.93;;;22.80;58.00;;;;;;4986879;28;20208;-70
2021/07/02 00:40:58;;;;;;;6.87;5.27;;;22.80;58.00;;;;;;4990464;28;20599;-70
2021/07/02 00:43:25;;;;;;;7.27;5.83;;;22.80;58.00;;;;;;4982761;28;20193;-70
2021/07/02 00:45:56;;;;;;;6.10;5.00;;;22.80;57.90;;;;;;4980604;28;20232;-70
2021/07/02 00:48:26;;;;;;;10.23;5.67;;;22.70;57.90;;;;;;4982780;28;20211;-70
2021/07/02 00:50:55;;;;;;;7.20;5.30;;;22.80;57.90;;;;;;4983774;28;20303;-70
2021/07/02 00:53:23;;;;;;;9.90;5.70;;;22.70;57.80;;;;;;4986150;28;20212;-70
2021/07/02 00:55:54;;;;;;;8.27;5.57;;;22.70;57.80;;;;;;4984274;28;20197;-70
2021/07/02 00:58:29;;;;;;;8.30;5.63;;;22.70;57.80;;;;;;4961941;28;20196;-70
2021/07/02 01:00:59;;;;;;;6.37;5.73;;;22.70;57.80;;;;;;4981433;28;20246;-70
2021/07/02 01:03:29;;;;;;;6.80;5.87;;;22.70;57.80;;;;;;4989149;28;20204;-70
2021/07/02 01:05:56;;;;;;;6.17;4.80;;;22.70;57.70;;;;;;4982936;28;20201;-70
2021/07/02 01:08:28;;;;;;;8.50;5.37;;;22.70;57.80;;;;;;4985945;28;20201;-70
2021/07/02 01:10:57;;;;;;;7.03;6.17;;;22.70;57.70;;;;;;4983085;28;20193;-70
2021/07/02 01:13:28;;;;;;;6.27;5.37;;;22.60;57.70;;;;;;4988186;28;20205;-70
2021/07/02 01:15:57;;;;;;;6.93;6.03;;;22.60;57.70;;;;;;4982321;28;20215;-70
2021/07/02 01:18:29;;;;;;;7.77;6.00;;;22.70;57.70;;;;;;4985805;28;20208;-70
2021/07/02 01:20:57;;;;;;;7.40;5.70;;;22.60;57.70;;;;;;4985641;28;20220;-70
2021/07/02 01:23:27;;;;;;;8.33;5.87;;;22.60;57.60;;;;;;4976919;28;20188;-70
2021/07/02 01:25:54;;;;;;;7.50;5.50;;;22.60;57.60;;;;;;4985678;28;20242;-70
2021/07/02 01:28:25;;;;;;;7.03;5.53;;;22.60;57.50;;;;;;4981797;28;20200;-70
2021/07/02 01:30:53;;;;;;;6.63;5.93;;;22.60;57.60;;;;;;4978719;28;20217;-70
2021/07/02 01:33:24;;;;;;;8.00;5.67;;;22.60;57.50;;;;;;4983762;28;20241;-70
2021/07/02 01:35:53;;;;;;;9.63;5.50;;;22.60;57.60;;;;;;4976974;28;20214;-70
2021/07/02 01:38:19;;;;;;;9.17;5.97;;;22.60;57.50;;;;;;4983055;28;20719;-70
2021/07/02 01:40:46;;;;;;;7.03;5.83;;;22.60;57.50;;;;;;4990252;28;20693;-70
2021/07/02 01:43:15;;;;;;;7.60;5.83;;;22.60;57.50;;;;;;4980851;28;20201;-70
2021/07/02 01:45:46;;;;;;;7.73;5.70;;;22.50;57.40;;;;;;4982233;28;20196;-70
2021/07/02 01:48:17;;;;;;;6.73;6.00;;;22.50;57.40;;;;;;4982094;28;20213;-70
2021/07/02 01:50:47;;;;;;;6.80;6.13;;;22.50;57.40;;;;;;4980138;28;20211;-70
2021/07/02 01:53:18;;;;;;;7.73;5.73;;;22.50;57.50;;;;;;4983945;28;20827;-70
2021/07/02 01:55:48;;;;;;;7.97;6.50;;;22.50;57.40;;;;;;4989515;28;20661;-69
2021/07/02 01:58:17;;;;;;;7.30;6.13;;;22.50;57.40;;;;;;4978713;28;20243;-69
2021/07/02 02:00:45;;;;;;;8.37;5.90;;;22.50;57.40;;;;;;4982979;28;20220;-69
2021/07/02 02:03:16;;;;;;;8.13;5.73;;;22.50;57.30;;;;;;4985873;28;20228;-70
2021/07/02 02:05:43;;;;;;;7.13;6.20;;;22.50;57.30;;;;;;4986102;28;20204;-69
2021/07/02 02:08:10;;;;;;;6.20;5.60;;;22.50;57.20;;;;;;4984325;28;20200;-69
2021/07/02 02:10:37;;;;;;;9.37;5.70;;;22.50;57.30;;;;;;4978880;28;20213;-70
2021/07/02 02:13:10;;;;;;;8.40;5.77;;;22.50;57.20;;;;;;4987496;28;20200;-70
2021/07/02 02:15:39;;;;;;;7.37;6.23;;;22.40;57.10;;;;;;4985722;28;20200;-70
2021/07/02 02:18:08;;;;;;;7.30;5.63;;;22.50;57.20;;;;;;4986760;28;20208;-69
2021/07/02 02:20:35;;;;;;;6.00;5.40;;;22.40;57.10;;;;;;4980780;28;20665;-70
2021/07/02 02:23:05;;;;;;;7.23;6.40;;;22.40;57.10;;;;;;4989092;28;20204;-71
2021/07/02 02:25:33;;;;;;;7.43;6.03;;;22.40;57.10;;;;;;4978455;28;20209;-70
2021/07/02 02:28:03;;;;;;;10.20;6.37;;;22.40;57.10;;;;;;4989381;28;20232;-70
2021/07/02 02:30:37;;;;;;;10.57;6.57;;;22.40;57.00;;;;;;4987343;28;20312;-70
2021/07/02 02:33:08;;;;;;;6.70;5.67;;;22.40;57.00;;;;;;4979902;28;20559;-70
2021/07/02 02:35:35;;;;;;;7.20;6.23;;;22.40;56.90;;;;;;4982061;28;20770;-70
2021/07/02 02:38:05;;;;;;;8.63;6.20;;;22.40;56.90;;;;;;4980755;28;20666;-69
2021/07/02 02:40:33;;;;;;;6.73;5.97;;;22.40;56.90;;;;;;4984485;28;20266;-69
2021/07/02 02:43:04;;;;;;;7.97;6.83;;;22.40;56.90;;;;;;4972304;28;20216;-69
2021/07/02 02:45:33;;;;;;;8.43;6.23;;;22.40;56.90;;;;;;4984067;28;20254;-70
2021/07/02 02:48:01;;;;;;;7.33;5.73;;;22.40;56.90;;;;;;4984999;28;20201;-70
2021/07/02 02:50:31;;;;;;;8.10;6.00;;;22.30;56.80;;;;;;4982728;28;20533;-70
2021/07/02 02:52:57;;;;;;;8.77;6.13;;;22.30;56.80;;;;;;4982021;28;20201;-69
2021/07/02 02:55:26;;;;;;;7.50;6.60;;;22.40;56.90;;;;;;4987441;28;20208;-69
2021/07/02 02:57:58;;;;;;;7.50;6.17;;;22.30;56.70;;;;;;4983470;28;20205;-69
2021/07/02 03:00:28;;;;;;;7.10;6.37;;;22.30;56.70;;;;;;4989987;28;20209;-69
2021/07/02 03:02:57;;;;;;;8.47;6.50;;;22.30;56.80;;;;;;4978988;28;20650;-69
2021/07/02 03:05:31;;;;;;;9.00;5.70;;;22.30;56.70;;;;;;4985717;28;20643;-70
2021/07/02 03:07:59;;;;;;;7.47;6.17;;;22.30;56.70;;;;;;4938817;28;20216;-70
2021/07/02 03:10:31;;;;;;;7.53;5.70;;;22.30;56.70;;;;;;4983479;28;20188;-70
2021/07/02 03:13:02;;;;;;;8.43;5.90;;;22.30;56.60;;;;;;4983209;28;20794;-69
2021/07/02 03:15:33;;;;;;;6.73;6.00;;;22.30;56.70;;;;;;4988713;28;20240;-69
2021/07/02 03:18:03;;;;;;;7.50;6.10;;;22.30;56.70;;;;;;4984876;28;20200;-69
2021/07/02 03:20:34;;;;;;;7.93;6.00;;;22.30;56.70;;;;;;4978232;28;20208;-69
2021/07/02 03:23:06;;;;;;;8.47;6.20;;;22.30;56.80;;;;;;4984171;28;20200;-70
2021/07/02 03:25:36;;;;;;;6.97;6.23;;;22.30;56.80;;;;;;4985896;28;20230;-70
2021/07/02 03:28:04;;;;;;;8.60;6.60;;;22.30;56.80;;;;;;4981300;28;20197;-70
2021/07/02 03:30:33;;;;;;;7.83;6.50;;;22.30;56.90;;;;;;4976124;28;20302;-69
2021/07/02 03:33:04;;;;;;;8.60;6.60;;;22.30;56.80;;;;;;4974911;28;20693;-69
2021/07/02 03:35:35;;;;;;;7.83;6.50;;;22.30;56.80;;;;;;4981236;28;20215;-69
2021/07/02 03:38:08;;;;;;;7.83;6.50;;;22.20;56.80;;;;;;4988603;28;20418;-70
2021/07/02 03:40:38;;;;;;;9.57;6.20;;;22.30;56.80;;;;;;4977837;28;20267;-70
2021/07/02 03:43:08;;;;;;;8.53;6.30;;;22.30;56.80;;;;;;4988337;28;20621;-69
2021/07/02 03:45:36;;;;;;;6.90;5.97;;;22.20;56.80;;;;;;4980356;28;20201;-69
2021/07/02 03:48:08;;;;;;;7.13;6.10;;;22.20;56.90;;;;;;4982249;28;20197;-69
2021/07/02 03:50:36;;;;;;;7.07;6.37;;;22.20;56.90;;;;;;4979536;28;20209;-69
2021/07/02 03:53:04;;;;;;;8.03;6.33;;;22.20;56.90;;;;;;4987650;28;20197;-69
2021/07/02 03:55:32;;;;;;;8.83;6.33;;;22.20;56.90;;;;;;4982922;28;20204;-69
2021/07/02 03:57:59;;;;;;;9.20;6.93;;;22.20;57.50;;;;;;4986912;28;20291;-69
2021/07/02 04:00:31;;;;;;;10.00;7.10;;;22.20;57.00;;;;;;4977190;28;20204;-70
2021/07/02 04:03:03;;;;;;;8.70;7.10;;;22.20;57.00;;;;;;4982988;28;20228;-70
2021/07/02 04:05:33;;;;;;;9.63;6.87;;;22.20;57.00;;;;;;4984583;28;20291;-69
2021/07/02 04:08:05;;;;;;;11.43;6.83;;;22.20;57.00;;;;;;4982700;28;20213;-68
2021/07/02 04:10:33;;;;;;;8.97;6.83;;;22.20;56.90;;;;;;4986147;28;20232;-68
2021/07/02 04:13:03;;;;;;;8.83;6.93;;;22.20;56.90;;;;;;4981937;28;20246;-67
2021/07/02 04:15:34;;;;;;;9.17;6.90;;;22.20;56.90;;;;;;4986901;28;20228;-68
2021/07/02 04:18:06;;;;;;;7.60;6.57;;;22.20;56.90;;;;;;4978376;28;20302;-69
2021/07/02 04:20:37;;;;;;;8.63;7.00;;;22.20;56.90;;;;;;4988387;28;20697;-68
2021/07/02 04:23:07;;;;;;;7.43;6.33;;;22.20;56.90;;;;;;4982002;28;20223;-68
2021/07/02 04:25:36;;;;;;;6.67;5.97;;;22.20;56.90;;;;;;4980005;28;20213;-68
2021/07/02 04:28:04;;;;;;;12.47;7.20;;;22.10;56.90;;;;;;4984013;28;20200;-68
2021/07/02 04:30:33;;;;;;;8.03;6.60;;;22.20;56.90;;;;;;4992867;28;20207;-69
2021/07/02 04:33:04;;;;;;;7.73;6.93;;;22.20;57.00;;;;;;4985032;28;20636;-69
2021/07/02 04:35:36;;;;;;;8.57;6.63;;;22.20;56.90;;;;;;4981269;28;20244;-69
2021/07/02 04:38:18;;;;;;;7.50;6.50;;;22.20;56.90;;;;;;4989322;28;20295;-69
2021/07/02 04:40:48;;;;;;;7.60;6.23;;;22.20;56.80;;;;;;4988581;28;20212;-69
2021/07/02 04:43:16;;;;;;;10.93;6.70;;;22.20;56.80;;;;;;4978757;28;20231;-69
2021/07/02 04:45:48;;;;;;;8.73;6.03;;;22.20;56.80;;;;;;4985710;28;20220;-68
2021/07/02 04:48:41;;;;;;;7.50;6.67;;;22.20;56.90;;;;;;4991207;28;20268;-68
2021/07/02 04:51:09;;;;;;;8.23;6.40;;;22.20;56.90;;;;;;4984894;28;20694;-68
2021/07/02 04:53:39;;;;;;;7.70;5.70;;;22.10;57.30;;;;;;4983935;28;20200;-68
2021/07/02 04:56:08;;;;;;;6.97;5.40;;;22.10;57.40;;;;;;4985607;28;20204;-69
2021/07/02 04:58:37;;;;;;;6.37;5.73;;;22.10;57.30;;;;;;4980710;28;20207;-69
2021/07/02 05:01:04;;;;;;;8.20;6.23;;;22.10;57.00;;;;;;4988013;28;20286;-70
2021/07/02 05:03:35;;;;;;;7.33;6.13;;;22.10;56.90;;;;;;4983551;28;20204;-70
2021/07/02 05:06:05;;;;;;;8.60;6.80;;;22.10;56.80;;;;;;4985000;28;20263;-68
2021/07/02 05:08:37;;;;;;;7.30;5.80;;;22.10;56.90;;;;;;4991804;28;20209;-69
2021/07/02 05:11:07;;;;;;;12.73;7.10;;;22.10;57.60;;;;;;4978089;28;20550;-71
2021/07/02 05:13:37;;;;;;;9.93;6.70;;;22.10;57.20;;;;;;4976577;28;20248;-67
2021/07/02 05:16:07;;;;;;;9.77;6.80;;;22.10;56.50;;;;;;4992001;28;20208;-69
2021/07/02 05:18:36;;;;;;;9.93;6.77;;;22.10;56.80;;;;;;4984752;28;20220;-69
2021/07/02 05:21:05;;;;;;;47.07;16.83;;;22.10;56.60;;;;;;4988902;28;20235;-68
2021/07/02 05:23:32;;;;;;;33.07;14.27;;;22.10;59.20;;;;;;4983683;28;20569;-68
2021/07/02 05:26:00;;;;;;;37.13;14.50;;;22.10;59.50;;;;;;4990999;28;20184;-69
2021/07/02 05:28:28;;;;;;;29.77;12.30;;;22.20;59.60;;;;;;4983041;28;20312;-69
2021/07/02 05:30:58;;;;;;;21.50;10.73;;;22.20;59.40;;;;;;4991624;28;20495;-70
2021/07/02 05:33:26;;;;;;;21.20;10.50;;;22.20;59.20;;;;;;4984923;28;20247;-69
2021/07/02 05:35:55;;;;;;;17.10;9.80;;;22.20;59.00;;;;;;4975155;28;20203;-67
2021/07/02 05:38:24;;;;;;;18.07;9.27;;;22.10;58.50;;;;;;4976812;28;20208;-67
2021/07/02 05:40:57;;;;;;;15.03;8.90;;;22.20;58.00;;;;;;4984888;28;20204;-68
2021/07/02 05:43:27;;;;;;;13.17;8.83;;;22.20;58.40;;;;;;4983542;28;20227;-68
2021/07/02 05:45:56;;;;;;;13.57;8.20;;;22.20;57.10;;;;;;4981999;28;20205;-69
2021/07/02 05:48:25;;;;;;;11.17;7.50;;;22.10;56.70;;;;;;4985523;28;20197;-68
2021/07/02 05:50:53;;;;;;;12.77;8.10;;;22.20;56.40;;;;;;4984647;28;20815;-68
2021/07/02 05:53:21;;;;;;;11.13;7.60;;;22.10;56.30;;;;;;4983044;28;20185;-69
2021/07/02 05:55:51;;;;;;;13.40;7.70;;;22.10;56.10;;;;;;4979695;28;20214;-69
2021/07/02 05:58:19;;;;;;;10.63;7.60;;;22.10;56.10;;;;;;4979209;28;20429;-67
2021/07/02 06:00:46;;;;;;;12.63;7.27;;;22.10;56.70;;;;;;4984435;28;20454;-67
2021/07/02 06:03:17;;;;;;;13.17;7.00;;;22.10;57.00;;;;;;4989035;28;20204;-67
2021/07/02 06:05:50;;;;;;;12.20;7.57;;;22.10;57.00;;;;;;4984508;28;20201;-67
2021/07/02 06:08:19;;;;;;;10.83;7.20;;;22.10;57.00;;;;;;4987338;28;20558;-67
2021/07/02 06:10:46;;;;;;;10.40;7.23;;;22.20;57.00;;;;;;4985524;28;20669;-67
2021/07/02 06:13:13;;;;;;;11.87;7.50;;;22.10;56.80;;;;;;4991292;28;20197;-68
2021/07/02 06:15:41;;;;;;;59.00;21.63;;;22.10;57.50;;;;;;4989574;28;20208;-67
2021/07/02 06:18:10;;;;;;;29.90;12.57;;;22.20;58.30;;;;;;4974084;28;20200;-67
2021/07/02 06:20:38;;;;;;;26.85;12.00;;;22.20;58.10;;;;;;4981459;28;20442;-69
2021/07/02 06:23:07;;;;;;;22.13;10.17;;;22.30;58.10;;;;;;4978105;28;20614;-70
2021/07/02 06:25:38;;;;;;;21.60;9.03;;;22.30;58.30;;;;;;4990924;28;20213;-69
2021/07/02 06:28:08;;;;;;;19.47;8.37;;;22.40;58.30;;;;;;4989244;28;20204;-71
2021/07/02 06:30:42;;;;;;;17.60;7.73;;;22.50;58.10;;;;;;4989550;28;20204;-71
2021/07/02 06:33:13;;;;;;;11.30;7.00;;;22.60;57.80;;;;;;4986677;28;20239;-70
2021/07/02 06:35:41;;;;;;;11.03;6.60;;;22.60;57.50;;;;;;4986520;28;20197;-71
2021/07/02 06:38:11;;;;;;;11.60;6.90;;;22.70;57.40;;;;;;4986442;28;20206;-70
2021/07/02 06:40:38;;;;;;;10.93;6.33;;;22.80;57.30;;;;;;4987740;28;20547;-71
2021/07/02 06:43:08;;;;;;;9.53;5.80;;;22.70;57.10;;;;;;4987485;28;20232;-70
2021/07/02 06:45:34;;;;;;;12.17;6.43;;;22.80;56.80;;;;;;4987531;28;20196;-70
2021/07/02 06:48:04;;;;;;;8.50;5.87;;;22.90;56.90;;;;;;4989059;28;20586;-72
2021/07/02 06:50:42;;;;;;;8.13;6.07;;;23.00;56.90;;;;;;4988233;28;20205;-71
2021/07/02 06:53:11;;;;;;;7.53;5.57;;;23.00;56.40;;;;;;4984517;28;20208;-69
2021/07/02 06:55:42;;;;;;;9.60;5.30;;;23.00;56.20;;;;;;4985909;28;20247;-68
2021/07/02 06:58:14;;;;;;;7.07;5.43;;;23.10;56.00;;;;;;4986422;28;20195;-70
2021/07/02 07:00:43;;;;;;;9.50;5.30;;;23.10;55.80;;;;;;4989153;28;20189;-69
2021/07/02 07:03:12;;;;;;;7.83;5.33;;;23.20;55.70;;;;;;4987243;28;20781;-69
2021/07/02 07:05:41;;;;;;;8.90;4.90;;;23.20;55.60;;;;;;4969537;28;20200;-68
2021/07/02 07:08:09;;;;;;;8.07;5.40;;;23.20;55.50;;;;;;4983121;28;20712;-68
2021/07/02 07:10:38;;;;;;;7.40;5.47;;;23.30;55.30;;;;;;4989606;28;20207;-70
2021/07/02 07:13:12;;;;;;;6.67;5.17;;;23.30;55.20;;;;;;4980872;28;20216;-67
2021/07/02 07:15:48;;;;;;;8.20;5.73;;;23.40;55.00;;;;;;4982081;28;20200;-70
2021/07/02 07:18:16;;;;;;;13.53;5.30;;;23.40;54.70;;;;;;4982748;28;20205;-66
2021/07/02 07:20:48;;;;;;;6.70;5.53;;;23.50;55.10;;;;;;4988762;28;20216;-71
2021/07/02 07:23:18;;;;;;;6.47;5.57;;;23.50;54.80;;;;;;4979693;28;20227;-66
2021/07/02 07:25:45;;;;;;;8.77;5.33;;;23.50;54.70;;;;;;4981225;28;20192;-67
2021/07/02 07:28:12;;;;;;;6.33;5.40;;;23.50;54.90;;;;;;4976841;28;20200;-68
2021/07/02 07:30:42;;;;;;;5.97;5.37;;;23.60;54.70;;;;;;4977768;28;20239;-69
2021/07/02 07:33:12;;;;;;;9.43;5.27;;;23.60;55.80;;;;;;4979000;28;20216;-69
2021/07/02 07:35:43;;;;;;;8.13;5.67;;;23.70;56.40;;;;;;4987755;28;20215;-70
2021/07/02 07:38:10;;;;;;;8.00;6.27;;;23.70;58.20;;;;;;4980542;28;20236;-73
2021/07/02 07:40:38;;;;;;;10.63;5.50;;;23.60;58.00;;;;;;4990427;28;20207;-70
2021/07/02 07:43:10;;;;;;;12.07;5.87;;;23.60;57.70;;;;;;4980672;28;20226;-72
2021/07/02 07:45:41;;;;;;;11.53;6.17;;;23.60;58.20;;;;;;4985908;28;20211;-73
2021/07/02 07:48:11;;;;;;;9.97;5.87;;;23.60;57.60;;;;;;4978077;28;20192;-66
2021/07/02 07:50:44;;;;;;;9.27;6.40;;;23.70;57.30;;;;;;4977328;28;20208;-66
2021/07/02 07:53:13;;;;;;;12.57;6.57;;;23.60;56.80;;;;;;4983262;28;20251;-71
2021/07/02 07:55:44;;;;;;;9.47;6.87;;;23.60;56.90;;;;;;4982070;28;20212;-70
2021/07/02 07:58:15;;;;;;;8.50;6.60;;;23.60;56.20;;;;;;4983128;28;20201;-71
2021/07/02 08:00:42;;;;;;;7.87;6.00;;;23.60;55.80;;;;;;4984746;28;20204;-71
2021/07/02 08:03:09;;;;;;;10.37;6.93;;;23.60;55.80;;;;;;4978755;28;20216;-71
2021/07/02 08:05:38;;;;;;;9.77;7.37;;;23.60;55.50;;;;;;4980465;28;20725;-71
2021/07/02 08:08:12;;;;;;;8.97;7.40;;;23.60;55.40;;;;;;4986702;28;20279;-71
2021/07/02 08:10:42;;;;;;;9.33;7.17;;;23.70;55.30;;;;;;4983045;28;20682;-70
2021/07/02 08:13:12;;;;;;;10.57;7.67;;;23.60;55.10;;;;;;4991508;28;20196;-71
2021/07/02 08:15:42;;;;;;;9.67;7.50;;;23.70;54.80;;;;;;4987534;28;20208;-71
2021/07/02 08:18:10;;;;;;;8.73;7.33;;;23.70;54.60;;;;;;4989446;28;20202;-70
2021/07/02 08:20:39;;;;;;;11.73;7.03;;;23.70;54.40;;;;;;4983048;28;20216;-70
2021/07/02 08:23:09;;;;;;;9.37;7.53;;;23.70;54.20;;;;;;4989710;28;20216;-70
2021/07/02 08:25:40;;;;;;;7.80;6.93;;;23.70;54.40;;;;;;4979858;28;20676;-70
2021/07/02 08:31:00;;;;;;;19.37;7.77;;;23.70;54.00;;;;;;4983108;28;20221;-69
2021/07/02 08:33:28;;;;;;;9.27;7.10;;;23.70;53.50;;;;;;4982548;28;20243;-69
2021/07/02 08:35:59;;;;;;;10.37;7.73;;;23.70;53.70;;;;;;4984372;28;20264;-69
2021/07/02 08:38:29;;;;;;;12.70;8.07;;;23.70;53.30;;;;;;4991306;28;20303;-70
2021/07/02 08:40:57;;;;;;;11.30;7.30;;;23.70;53.00;;;;;;4982226;28;20263;-69
2021/07/02 08:43:27;;;;;;;13.03;7.33;;;23.70;52.90;;;;;;4990364;28;20237;-69
2021/07/02 08:45:56;;;;;;;9.80;6.90;;;23.70;52.90;;;;;;4984887;28;20204;-69
2021/07/02 08:48:29;;;;;;;9.03;6.93;;;23.80;54.30;;;;;;4988680;28;20213;-69
2021/07/02 08:50:58;;;;;;;9.47;7.37;;;23.80;54.60;;;;;;4980491;28;20201;-68
2021/07/02 08:53:28;;;;;;;11.23;6.70;;;23.80;54.10;;;;;;4982440;28;20205;-70
2021/07/02 08:55:58;;;;;;;8.47;7.03;;;23.80;53.00;;;;;;4983194;28;20649;-69
2021/07/02 08:58:27;;;;;;;10.33;7.70;;;23.80;53.40;;;;;;4979004;28;20231;-70
2021/07/02 09:00:55;;;;;;;10.47;7.80;;;23.80;52.30;;;;;;4984113;28;20246;-70
2021/07/02 09:03:39;;;;;;;11.33;8.67;;;23.80;52.00;;;;;;4985899;28;20213;-71
2021/07/02 09:06:18;;;;;;;12.63;8.60;;;23.80;51.40;;;;;;4989817;28;20235;-69
2021/07/02 09:09:02;;;;;;;14.93;9.07;;;23.80;51.80;;;;;;4984172;28;20207;-71
2021/07/02 09:11:35;;;;;;;13.67;8.73;;;23.80;51.80;;;;;;4989745;28;20213;-70
2021/07/02 09:14:08;;;;;;;12.90;8.70;;;23.90;51.90;;;;;;4984209;28;20303;-71
2021/07/02 09:16:38;;;;;;;11.83;8.07;;;23.90;53.10;;;;;;4981349;28;20237;-68
2021/07/02 09:19:24;;;;;;;10.57;8.00;;;23.90;53.40;;;;;;4982823;28;20220;-68
2021/07/02 09:22:15;;;;;;;11.23;7.43;;;23.90;53.60;;;;;;4990747;28;20243;-68
2021/07/02 09:24:48;;;;;;;9.73;7.60;;;23.90;54.00;;;;;;4982691;28;20204;-69
2021/07/02 09:27:33;;;;;;;9.83;7.77;;;24.00;54.10;;;;;;4984779;28;20247;-70
2021/07/02 09:30:22;;;;;;;13.83;8.40;;;24.00;53.80;;;;;;4985595;28;20207;-69
2021/07/02 09:33:02;;;;;;;15.50;8.70;;;23.90;54.10;;;;;;4984793;28;20240;-70
2021/07/02 09:35:35;;;;;;;11.57;8.63;;;23.90;53.10;;;;;;4987213;28;20195;-69
2021/07/02 09:38:26;;;;;;;18.97;10.00;;;24.00;53.20;;;;;;4981381;28;20235;-71
2021/07/02 09:40:56;;;;;;;14.70;9.40;;;23.90;52.60;;;;;;4988730;28;20193;-69
2021/07/02 09:43:30;;;;;;;10.73;7.83;;;23.90;52.40;;;;;;4982057;28;20220;-67
2021/07/02 09:46:04;;;;;;;14.73;8.63;;;23.90;53.60;;;;;;4983539;28;20191;-68
2021/07/02 09:48:45;;;;;;;10.50;8.47;;;24.00;54.20;;;;;;4980219;28;20192;-68
2021/07/02 09:51:13;;;;;;;13.30;9.37;;;24.00;54.10;;;;;;4990494;28;20645;-69
2021/07/02 09:53:43;;;;;;;14.90;10.33;;;24.00;53.20;;;;;;4982655;28;20283;-69
2021/07/02 09:56:20;;;;;;;12.20;9.97;;;24.00;53.20;;;;;;4978895;28;20650;-69
2021/07/02 09:58:51;;;;;;;11.93;10.03;;;24.00;52.70;;;;;;4981912;28;20215;-69
2021/07/02 10:01:32;;;;;;;11.57;10.13;;;24.00;52.70;;;;;;4989224;28;20204;-68
2021/07/02 10:04:10;;;;;;;10.97;9.00;;;24.00;53.50;;;;;;4971069;28;20234;-68
2021/07/02 10:06:42;;;;;;;14.20;9.53;;;24.00;53.40;;;;;;4983012;28;20220;-69
2021/07/02 10:09:11;;;;;;;13.10;10.30;;;24.00;53.30;;;;;;5000534;28;20310;-69
2021/07/02 10:11:42;;;;;;;13.43;10.37;;;24.00;53.40;;;;;;4980948;28;20811;-70
2021/07/02 10:14:14;;;;;;;13.07;9.90;;;24.00;53.00;;;;;;4983426;28;20232;-70
2021/07/02 10:16:44;;;;;;;15.70;10.50;;;24.00;52.20;;;;;;4982022;28;20278;-69
2021/07/02 10:19:19;;;;;;;15.27;11.33;;;24.00;52.10;;;;;;4987588;28;20438;-68
2021/07/02 10:21:50;;;;;;;14.70;11.73;;;24.00;52.10;;;;;;4986513;28;20293;-70
2021/07/02 10:24:23;;;;;;;13.20;10.70;;;24.00;51.80;;;;;;4983205;28;20221;-69
2021/07/02 10:26:52;;;;;;;12.23;10.10;;;24.00;52.10;;;;;;4975993;28;20228;-68
2021/07/02 10:29:22;;;;;;;14.03;9.90;;;24.00;52.20;;;;;;4968004;28;20216;-68
2021/07/02 10:31:50;;;;;;;13.80;10.63;;;24.00;52.60;;;;;;4985487;28;20196;-69
2021/07/02 10:34:25;;;;;;;14.20;10.70;;;24.00;53.00;;;;;;4987683;28;20728;-69
2021/07/02 10:37:03;;;;;;;19.37;10.50;;;24.00;53.20;;;;;;4980378;28;20203;-70
2021/07/02 10:39:35;;;;;;;15.20;12.00;;;24.00;53.30;;;;;;4984772;28;20266;-69
2021/07/02 10:42:14;;;;;;;12.77;11.10;;;24.00;53.20;;;;;;4973240;28;20667;-71
2021/07/02 10:44:56;;;;;;;12.00;9.33;;;24.10;52.60;;;;;;4984051;28;20232;-67
2021/07/02 10:47:25;;;;;;;16.90;12.70;;;24.00;54.90;;;;;;4980462;28;20197;-67
2021/07/02 10:49:54;;;;;;;13.97;10.10;;;24.00;52.80;;;;;;4977513;28;20208;-67
2021/07/02 10:52:33;;;;;;;12.93;11.33;;;23.90;54.40;;;;;;4984672;28;20207;-67
2021/07/02 10:55:32;;;;;;;15.07;13.13;;;23.90;54.00;;;;;;4985374;28;20216;-67
2021/07/02 10:57:59;;;;;;;16.53;12.13;;;23.80;52.50;;;;;;4974638;28;20217;-67
2021/07/02 11:00:29;;;;;;;17.63;13.20;;;23.70;52.40;;;;;;4981455;28;20607;-67
2021/07/02 11:03:21;;;;;;;14.20;11.87;;;23.70;52.50;;;;;;4989290;28;20273;-67
2021/07/02 11:05:52;;;;;;;16.73;13.07;;;23.70;52.60;;;;;;4982392;28;20204;-67
2021/07/02 11:08:46;;;;;;;16.97;13.03;;;23.70;52.70;;;;;;4986990;28;20709;-67
2021/07/02 11:11:18;;;;;;;18.33;13.67;;;23.60;53.00;;;;;;4979332;28;20602;-67
2021/07/02 11:14:08;;;;;;;17.20;13.70;;;23.60;53.00;;;;;;4982515;28;20434;-73
2021/07/02 11:17:14;;;;;;;15.23;12.33;;;23.70;54.10;;;;;;4982418;28;20500;-73
2021/07/02 11:19:42;;;;;;;21.90;15.40;;;23.70;54.40;;;;;;4983492;28;20208;-72
2021/07/02 11:22:29;;;;;;;24.27;16.70;;;23.80;53.70;;;;;;4987697;28;20291;-73
2021/07/02 11:25:10;;;;;;;21.30;16.10;;;23.70;53.90;;;;;;4979874;28;20227;-72
2021/07/02 11:27:45;;;;;;;21.93;15.53;;;23.80;53.80;;;;;;4981653;28;20351;-71
2021/07/02 11:30:21;;;;;;;19.23;14.97;;;23.80;54.60;;;;;;4978510;28;20200;-72
2021/07/02 11:32:56;;;;;;;21.13;14.90;;;23.80;54.60;;;;;;4978969;28;20219;-70
2021/07/02 11:35:36;;;;;;;18.33;13.87;;;23.80;54.30;;;;;;4961693;28;20243;-72
2021/07/02 11:38:16;;;;;;;19.20;14.53;;;23.80;54.40;;;;;;4983868;28;20210;-71
2021/07/02 11:41:00;;;;;;;21.83;15.70;;;23.80;54.60;;;;;;4981113;28;20634;-72
2021/07/02 11:43:37;;;;;;;18.03;14.80;;;23.80;54.90;;;;;;4987830;28;20212;-71
2021/07/02 11:46:15;;;;;;;19.10;14.07;;;23.80;55.10;;;;;;4993796;28;20253;-71
2021/07/02 11:48:59;;;;;;;19.97;15.47;;;23.70;55.30;;;;;;4980294;28;20294;-71
2021/07/02 11:51:33;;;;;;;20.77;14.53;;;23.80;55.60;;;;;;4985440;28;20239;-70
2021/07/02 11:54:08;;;;;;;21.83;16.23;;;23.80;55.70;;;;;;4982878;28;20216;-72
2021/07/02 11:56:45;;;;;;;19.80;16.33;;;23.80;55.60;;;;;;4995307;28;20200;-74
2021/07/02 11:59:16;;;;;;;22.53;16.93;;;23.80;55.50;;;;;;4987199;28;20199;-68
2021/07/02 12:01:49;;;;;;;21.60;15.20;;;23.70;55.80;;;;;;4990713;28;20348;-69
2021/07/02 12:04:33;;;;;;;19.63;14.73;;;23.80;55.50;;;;;;4983687;28;20205;-70
2021/07/02 12:07:11;;;;;;;18.63;13.17;;;23.80;56.00;;;;;;4979536;28;20638;-70
2021/07/02 12:09:42;;;;;;;16.90;13.80;;;23.90;55.80;;;;;;4992866;28;20204;-70
2021/07/02 12:12:19;;;;;;;17.43;13.30;;;23.90;55.80;;;;;;4985514;28;20686;-72
2021/07/02 12:14:51;;;;;;;18.90;14.20;;;23.90;55.60;;;;;;4989179;28;20204;-71
2021/07/02 12:17:20;;;;;;;21.00;14.70;;;24.00;56.10;;;;;;4990974;28;20324;-70
2021/07/02 12:19:48;;;;;;;18.50;14.67;;;24.00;55.50;;;;;;4989245;28;20829;-69
2021/07/02 12:22:18;;;;;;;17.03;14.20;;;24.00;55.80;;;;;;4987954;28;20224;-69
2021/07/02 12:24:49;;;;;;;17.53;13.63;;;24.10;55.50;;;;;;4988327;28;20703;-69
2021/07/02 12:27:23;;;;;;;19.17;13.73;;;24.10;55.50;;;;;;4983529;28;20200;-70
2021/07/02 12:29:59;;;;;;;19.57;12.50;;;24.20;55.70;;;;;;4989201;28;20205;-70
2021/07/02 12:32:29;;;;;;;17.73;15.13;;;24.20;55.50;;;;;;4991969;28;20238;-70
2021/07/02 12:35:12;;;;;;;19.67;15.77;;;24.30;55.80;;;;;;4989789;28;20234;-71
2021/07/02 12:37:44;;;;;;;19.27;15.90;;;24.30;55.30;;;;;;4989216;28;20641;-72
2021/07/02 12:40:14;;;;;;;24.63;16.90;;;24.30;55.60;;;;;;4984684;28;20268;-71
2021/07/02 12:42:45;;;;;;;18.97;15.10;;;24.30;55.30;;;;;;4993221;28;20236;-71
2021/07/02 12:45:19;;;;;;;18.10;15.50;;;24.30;54.70;;;;;;4985840;28;20232;-70
2021/07/02 12:47:49;;;;;;;17.73;15.17;;;24.30;54.90;;;;;;4982991;28;20196;-70
2021/07/02 12:50:19;;;;;;;18.47;15.53;;;24.40;55.00;;;;;;4981738;28;20196;-70
2021/07/02 12:55:55;;;;;;;22.83;18.80;;;24.40;55.10;;;;;;5005034;28;20202;-69
2021/07/02 12:58:33;;;;;;;24.87;19.30;;;24.40;55.20;;;;;;4984818;28;20224;-64
2021/07/02 13:01:09;;;;;;;20.70;18.47;;;24.40;55.60;;;;;;4994022;28;20192;-64
2021/07/02 13:03:41;;;;;;;23.37;19.53;;;24.30;55.80;;;;;;4982594;28;20224;-70
2021/07/02 13:06:16;;;;;;;20.27;17.60;;;24.40;56.30;;;;;;4988431;28;20208;-70